sensor_id;sensor_type;location;lat;lon;timestamp;temperature;humidity
7704;DHT22;3894;49.700;10.770;2023-07-13T00:01:45;21.90;97.50
7704;DHT22;3894;49.700;10.770;2023-07-13T00:04:14;21.90;97.50
7704;DHT22;3894;49.700;10.770;2023-07-13T00:06:41;21.90;97.60
7704;DHT22;3894;49.700;10.770;2023-07-13T00:09:11;21.90;97.60
7704;DHT22;3894;49.700;10.770;2023-07-13T00:11:37;21.90;97.90
7704;DHT22;3894;49.700;10.770;2023-07-13T00:14:03;21.90;97.90
7704;DHT22;3894;49.700;10.770;2023-07-13T00:16:29;21.90;98.10
7704;DHT22;3894;49.700;10.770;2023-07-13T00:18:54;21.90;98.10
7704;DHT22;3894;49.700;10.770;2023-07-13T00:21:20;21.90;98.30
7704;DHT22;3894;49.700;10.770;2023-07-13T00:23:45;21.80;98.20
7704;DHT22;3894;49.700;10.770;2023-07-13T00:26:11;21.80;98.30
7704;DHT22;3894;49.700;10.770;2023-07-13T00:28:38;21.80;98.40
7704;DHT22;3894;49.700;10.770;2023-07-13T00:31:05;21.70;98.50
7704;DHT22;3894;49.700;10.770;2023-07-13T00:33:31;21.70;98.80
7704;DHT22;3894;49.700;10.770;2023-07-13T00:35:57;21.70;98.80
7704;DHT22;3894;49.700;10.770;2023-07-13T00:38:23;21.60;98.90
7704;DHT22;3894;49.700;10.770;2023-07-13T00:40:49;21.50;99.10
7704;DHT22;3894;49.700;10.770;2023-07-13T00:43:17;21.40;99.30
7704;DHT22;3894;49.700;10.770;2023-07-13T00:48:10;21.30;99.60
7704;DHT22;3894;49.700;10.770;2023-07-13T00:50:37;21.20;99.70
7704;DHT22;3894;49.700;10.770;2023-07-13T00:53:03;21.10;99.80
7704;DHT22;3894;49.700;10.770;2023-07-13T00:55:29;21.10;99.90
7704;DHT22;3894;49.700;10.770;2023-07-13T00:57:55;21.00;99.90
7704;DHT22;3894;49.700;10.770;2023-07-13T01:00:22;20.90;99.90
7704;DHT22;3894;49.700;10.770;2023-07-13T01:02:48;20.90;99.90
7704;DHT22;3894;49.700;10.770;2023-07-13T01:05:17;20.80;99.90
7704;DHT22;3894;49.700;10.770;2023-07-13T01:07:44;20.60;99.90
7704;DHT22;3894;49.700;10.770;2023-07-13T01:10:11;20.50;99.90
7704;DHT22;3894;49.700;10.770;2023-07-13T01:12:37;20.50;99.90
7704;DHT22;3894;49.700;10.770;2023-07-13T01:15:03;20.60;99.90
7704;DHT22;3894;49.700;10.770;2023-07-13T01:17:31;20.60;99.90
7704;DHT22;3894;49.700;10.770;2023-07-13T01:19:58;20.60;99.90
7704;DHT22;3894;49.700;10.770;2023-07-13T01:22:25;20.60;99.90
7704;DHT22;3894;49.700;10.770;2023-07-13T01:24:53;20.60;99.90
7704;DHT22;3894;49.700;10.770;2023-07-13T01:27:24;20.60;99.90
7704;DHT22;3894;49.700;10.770;2023-07-13T01:29:53;20.50;99.90
7704;DHT22;3894;49.700;10.770;2023-07-13T01:32:27;20.40;99.90
7704;DHT22;3894;49.700;10.770;2023-07-13T01:34:53;20.30;99.90
7704;DHT22;3894;49.700;10.770;2023-07-13T01:37:23;20.30;99.90
7704;DHT22;3894;49.700;10.770;2023-07-13T01:39:49;20.20;99.90
7704;DHT22;3894;49.700;10.770;2023-07-13T01:42:15;20.20;99.90
7704;DHT22;3894;49.700;10.770;2023-07-13T01:44:40;20.00;99.90
7704;DHT22;3894;49.700;10.770;2023-07-13T01:47:06;19.90;99.90
7704;DHT22;3894;49.700;10.770;2023-07-13T01:49:32;19.90;99.90
7704;DHT22;3894;49.700;10.770;2023-07-13T01:51:57;19.70;99.90
7704;DHT22;3894;49.700;10.770;2023-07-13T01:54:23;19.70;99.90
7704;DHT22;3894;49.700;10.770;2023-07-13T01:56:49;19.60;99.90
7704;DHT22;3894;49.700;10.770;2023-07-13T01:59:14;19.60;99.90
7704;DHT22;3894;49.700;10.770;2023-07-13T02:01:40;19.60;99.90
7704;DHT22;3894;49.700;10.770;2023-07-13T02:04:05;19.60;99.90
7704;DHT22;3894;49.700;10.770;2023-07-13T02:06:31;19.60;99.90
7704;DHT22;3894;49.700;10.770;2023-07-13T02:08:57;19.50;99.90
7704;DHT22;3894;49.700;10.770;2023-07-13T02:11:22;19.40;99.90
7704;DHT22;3894;49.700;10.770;2023-07-13T02:13:48;19.20;99.90
7704;DHT22;3894;49.700;10.770;2023-07-13T02:16:14;19.20;99.90
7704;DHT22;3894;49.700;10.770;2023-07-13T02:18:39;19.20;99.90
7704;DHT22;3894;49.700;10.770;2023-07-13T02:21:05;19.20;99.90
7704;DHT22;3894;49.700;10.770;2023-07-13T02:23:30;19.10;99.90
7704;DHT22;3894;49.700;10.770;2023-07-13T02:25:57;19.00;99.90
7704;DHT22;3894;49.700;10.770;2023-07-13T02:28:24;19.00;99.90
7704;DHT22;3894;49.700;10.770;2023-07-13T02:30:50;19.00;99.90
7704;DHT22;3894;49.700;10.770;2023-07-13T02:33:15;19.00;99.90
7704;DHT22;3894;49.700;10.770;2023-07-13T02:35:41;18.90;99.90
7704;DHT22;3894;49.700;10.770;2023-07-13T02:38:07;18.90;99.90
7704;DHT22;3894;49.700;10.770;2023-07-13T02:40:34;18.90;99.90
7704;DHT22;3894;49.700;10.770;2023-07-13T02:43:01;18.80;99.90
7704;DHT22;3894;49.700;10.770;2023-07-13T02:45:27;18.80;99.90
7704;DHT22;3894;49.700;10.770;2023-07-13T02:47:52;18.70;99.90
7704;DHT22;3894;49.700;10.770;2023-07-13T02:50:18;18.60;99.90
7704;DHT22;3894;49.700;10.770;2023-07-13T02:52:43;18.60;99.90
7704;DHT22;3894;49.700;10.770;2023-07-13T02:55:09;18.60;99.90
7704;DHT22;3894;49.700;10.770;2023-07-13T02:57:35;18.60;99.90
7704;DHT22;3894;49.700;10.770;2023-07-13T03:00:02;18.60;99.90
7704;DHT22;3894;49.700;10.770;2023-07-13T03:02:31;18.50;99.90
7704;DHT22;3894;49.700;10.770;2023-07-13T03:04:58;18.50;99.90
7704;DHT22;3894;49.700;10.770;2023-07-13T03:07:24;18.40;99.90
7704;DHT22;3894;49.700;10.770;2023-07-13T03:09:55;18.40;99.90
7704;DHT22;3894;49.700;10.770;2023-07-13T03:12:21;18.40;99.90
7704;DHT22;3894;49.700;10.770;2023-07-13T03:14:46;18.40;99.90
7704;DHT22;3894;49.700;10.770;2023-07-13T03:17:12;18.40;99.90
7704;DHT22;3894;49.700;10.770;2023-07-13T03:19:37;18.30;99.90
7704;DHT22;3894;49.700;10.770;2023-07-13T03:22:03;18.30;99.90
7704;DHT22;3894;49.700;10.770;2023-07-13T03:24:29;18.20;99.90
7704;DHT22;3894;49.700;10.770;2023-07-13T03:26:54;18.10;99.90
7704;DHT22;3894;49.700;10.770;2023-07-13T03:29:20;18.10;99.90
7704;DHT22;3894;49.700;10.770;2023-07-13T03:31:46;18.10;99.90
7704;DHT22;3894;49.700;10.770;2023-07-13T03:34:12;18.20;99.90
7704;DHT22;3894;49.700;10.770;2023-07-13T03:36:37;18.20;99.90
7704;DHT22;3894;49.700;10.770;2023-07-13T03:39:03;18.20;99.90
7704;DHT22;3894;49.700;10.770;2023-07-13T03:41:29;18.20;99.90
7704;DHT22;3894;49.700;10.770;2023-07-13T03:43:56;18.10;99.90
7704;DHT22;3894;49.700;10.770;2023-07-13T03:46:22;18.10;99.90
7704;DHT22;3894;49.700;10.770;2023-07-13T03:48:48;18.10;99.90
7704;DHT22;3894;49.700;10.770;2023-07-13T03:51:16;18.10;99.90
7704;DHT22;3894;49.700;10.770;2023-07-13T03:53:43;18.10;99.90
7704;DHT22;3894;49.700;10.770;2023-07-13T03:56:09;18.10;99.90
7704;DHT22;3894;49.700;10.770;2023-07-13T03:58:37;18.10;99.90
7704;DHT22;3894;49.700;10.770;2023-07-13T04:01:04;18.10;99.90
7704;DHT22;3894;49.700;10.770;2023-07-13T04:03:31;18.20;99.90
7704;DHT22;3894;49.700;10.770;2023-07-13T04:05:59;18.30;99.90
7704;DHT22;3894;49.700;10.770;2023-07-13T04:08:26;18.40;99.90
7704;DHT22;3894;49.700;10.770;2023-07-13T04:10:52;18.40;99.90
7704;DHT22;3894;49.700;10.770;2023-07-13T04:13:18;18.30;99.90
7704;DHT22;3894;49.700;10.770;2023-07-13T04:15:43;18.10;99.90
7704;DHT22;3894;49.700;10.770;2023-07-13T04:18:09;18.00;99.90
7704;DHT22;3894;49.700;10.770;2023-07-13T04:20:34;17.90;99.90
7704;DHT22;3894;49.700;10.770;2023-07-13T04:23:00;17.90;99.90
7704;DHT22;3894;49.700;10.770;2023-07-13T04:25:26;18.00;99.90
7704;DHT22;3894;49.700;10.770;2023-07-13T04:27:53;18.00;99.90
7704;DHT22;3894;49.700;10.770;2023-07-13T04:30:18;18.10;99.90
7704;DHT22;3894;49.700;10.770;2023-07-13T04:32:44;18.10;99.90
7704;DHT22;3894;49.700;10.770;2023-07-13T04:35:10;18.20;99.90
7704;DHT22;3894;49.700;10.770;2023-07-13T04:37:35;18.30;99.90
7704;DHT22;3894;49.700;10.770;2023-07-13T04:40:01;18.40;99.90
7704;DHT22;3894;49.700;10.770;2023-07-13T04:42:27;18.40;99.90
7704;DHT22;3894;49.700;10.770;2023-07-13T04:44:53;18.40;99.90
7704;DHT22;3894;49.700;10.770;2023-07-13T04:47:19;18.50;99.90
7704;DHT22;3894;49.700;10.770;2023-07-13T04:49:45;18.60;99.90
7704;DHT22;3894;49.700;10.770;2023-07-13T04:52:11;18.80;99.90
7704;DHT22;3894;49.700;10.770;2023-07-13T04:54:37;19.00;99.90
7704;DHT22;3894;49.700;10.770;2023-07-13T04:57:03;19.20;99.90
7704;DHT22;3894;49.700;10.770;2023-07-13T04:59:32;19.30;99.90
7704;DHT22;3894;49.700;10.770;2023-07-13T05:01:57;19.40;99.90
7704;DHT22;3894;49.700;10.770;2023-07-13T05:04:23;19.50;99.90
7704;DHT22;3894;49.700;10.770;2023-07-13T05:06:48;19.50;99.90
7704;DHT22;3894;49.700;10.770;2023-07-13T05:09:14;19.50;99.90
7704;DHT22;3894;49.700;10.770;2023-07-13T05:11:39;19.60;99.90
7704;DHT22;3894;49.700;10.770;2023-07-13T05:14:05;19.80;99.90
7704;DHT22;3894;49.700;10.770;2023-07-13T05:16:31;19.90;99.90
7704;DHT22;3894;49.700;10.770;2023-07-13T05:18:58;20.10;99.90
7704;DHT22;3894;49.700;10.770;2023-07-13T05:21:24;20.00;99.90
7704;DHT22;3894;49.700;10.770;2023-07-13T05:23:50;19.90;99.90
7704;DHT22;3894;49.700;10.770;2023-07-13T05:26:15;20.00;99.90
7704;DHT22;3894;49.700;10.770;2023-07-13T05:28:41;20.00;99.90
7704;DHT22;3894;49.700;10.770;2023-07-13T05:31:08;19.90;99.70
7704;DHT22;3894;49.700;10.770;2023-07-13T05:33:34;19.90;99.80
7704;DHT22;3894;49.700;10.770;2023-07-13T05:36:00;19.90;99.80
7704;DHT22;3894;49.700;10.770;2023-07-13T05:38:28;19.70;99.60
7704;DHT22;3894;49.700;10.770;2023-07-13T05:40:55;19.60;99.80
7704;DHT22;3894;49.700;10.770;2023-07-13T05:43:21;19.50;99.80
7704;DHT22;3894;49.700;10.770;2023-07-13T05:45:47;19.50;99.80
7704;DHT22;3894;49.700;10.770;2023-07-13T05:48:12;19.30;99.60
7704;DHT22;3894;49.700;10.770;2023-07-13T05:50:40;19.30;99.60
7704;DHT22;3894;49.700;10.770;2023-07-13T05:53:05;19.20;99.70
7704;DHT22;3894;49.700;10.770;2023-07-13T05:55:31;19.10;99.60
7704;DHT22;3894;49.700;10.770;2023-07-13T05:57:57;19.10;99.80
7704;DHT22;3894;49.700;10.770;2023-07-13T06:00:24;19.10;99.70
7704;DHT22;3894;49.700;10.770;2023-07-13T06:02:50;19.30;99.70
7704;DHT22;3894;49.700;10.770;2023-07-13T06:05:15;19.80;99.60
7704;DHT22;3894;49.700;10.770;2023-07-13T06:07:42;20.20;98.70
7704;DHT22;3894;49.700;10.770;2023-07-13T06:10:08;20.40;98.20
7704;DHT22;3894;49.700;10.770;2023-07-13T06:12:34;20.50;97.90
7704;DHT22;3894;49.700;10.770;2023-07-13T06:14:59;20.50;97.50
7704;DHT22;3894;49.700;10.770;2023-07-13T06:17:25;20.50;97.90
7704;DHT22;3894;49.700;10.770;2023-07-13T06:19:50;20.50;97.40
7704;DHT22;3894;49.700;10.770;2023-07-13T06:22:16;20.60;97.60
7704;DHT22;3894;49.700;10.770;2023-07-13T06:24:41;20.40;97.30
7704;DHT22;3894;49.700;10.770;2023-07-13T06:27:07;20.20;97.50
7704;DHT22;3894;49.700;10.770;2023-07-13T06:29:33;20.00;97.70
7704;DHT22;3894;49.700;10.770;2023-07-13T06:31:58;20.00;97.70
7704;DHT22;3894;49.700;10.770;2023-07-13T06:34:24;20.00;97.30
7704;DHT22;3894;49.700;10.770;2023-07-13T06:36:49;20.30;97.00
7704;DHT22;3894;49.700;10.770;2023-07-13T06:39:15;20.60;96.80
7704;DHT22;3894;49.700;10.770;2023-07-13T06:41:40;20.90;95.60
7704;DHT22;3894;49.700;10.770;2023-07-13T06:44:06;20.90;94.90
7704;DHT22;3894;49.700;10.770;2023-07-13T06:46:32;20.90;94.90
7704;DHT22;3894;49.700;10.770;2023-07-13T06:48:57;21.00;94.20
7704;DHT22;3894;49.700;10.770;2023-07-13T06:51:23;21.00;94.00
7704;DHT22;3894;49.700;10.770;2023-07-13T06:53:49;21.10;93.50
7704;DHT22;3894;49.700;10.770;2023-07-13T06:56:15;21.00;92.80
7704;DHT22;3894;49.700;10.770;2023-07-13T06:58:41;20.90;93.00
7704;DHT22;3894;49.700;10.770;2023-07-13T07:01:06;21.00;92.50
7704;DHT22;3894;49.700;10.770;2023-07-13T07:03:32;20.80;92.20
7704;DHT22;3894;49.700;10.770;2023-07-13T07:06:18;20.60;92.30
7704;DHT22;3894;49.700;10.770;2023-07-13T07:08:44;20.40;92.80
7704;DHT22;3894;49.700;10.770;2023-07-13T07:11:13;20.50;92.80
7704;DHT22;3894;49.700;10.770;2023-07-13T07:13:39;20.60;92.40
7704;DHT22;3894;49.700;10.770;2023-07-13T07:16:04;20.60;92.60
7704;DHT22;3894;49.700;10.770;2023-07-13T07:18:30;20.90;92.20
7704;DHT22;3894;49.700;10.770;2023-07-13T07:20:55;21.10;92.40
7704;DHT22;3894;49.700;10.770;2023-07-13T07:23:21;21.50;91.70
7704;DHT22;3894;49.700;10.770;2023-07-13T07:25:47;21.40;92.10
7704;DHT22;3894;49.700;10.770;2023-07-13T07:28:15;21.50;91.70
7704;DHT22;3894;49.700;10.770;2023-07-13T07:30:44;21.80;91.10
7704;DHT22;3894;49.700;10.770;2023-07-13T07:33:10;21.80;90.50
7704;DHT22;3894;49.700;10.770;2023-07-13T07:35:35;21.80;90.40
7704;DHT22;3894;49.700;10.770;2023-07-13T07:38:01;21.80;90.00
7704;DHT22;3894;49.700;10.770;2023-07-13T07:40:26;21.60;89.80
7704;DHT22;3894;49.700;10.770;2023-07-13T07:42:52;21.60;90.10
7704;DHT22;3894;49.700;10.770;2023-07-13T07:45:18;21.80;88.90
7704;DHT22;3894;49.700;10.770;2023-07-13T07:47:44;21.80;88.80
7704;DHT22;3894;49.700;10.770;2023-07-13T07:50:10;21.90;88.40
7704;DHT22;3894;49.700;10.770;2023-07-13T07:52:36;21.80;88.70
7704;DHT22;3894;49.700;10.770;2023-07-13T07:55:01;21.80;88.90
7704;DHT22;3894;49.700;10.770;2023-07-13T07:57:27;22.00;88.50
7704;DHT22;3894;49.700;10.770;2023-07-13T07:59:52;22.20;87.80
7704;DHT22;3894;49.700;10.770;2023-07-13T08:02:18;22.30;87.80
7704;DHT22;3894;49.700;10.770;2023-07-13T08:04:43;22.40;87.40
7704;DHT22;3894;49.700;10.770;2023-07-13T08:07:09;22.40;87.20
7704;DHT22;3894;49.700;10.770;2023-07-13T08:09:35;22.60;87.20
7704;DHT22;3894;49.700;10.770;2023-07-13T08:12:01;22.90;87.70
7704;DHT22;3894;49.700;10.770;2023-07-13T08:14:26;23.00;87.10
7704;DHT22;3894;49.700;10.770;2023-07-13T08:16:52;23.10;87.60
7704;DHT22;3894;49.700;10.770;2023-07-13T08:19:19;23.40;86.50
7704;DHT22;3894;49.700;10.770;2023-07-13T08:21:44;23.50;85.70
7704;DHT22;3894;49.700;10.770;2023-07-13T08:24:10;23.60;85.80
7704;DHT22;3894;49.700;10.770;2023-07-13T08:26:36;23.70;85.30
7704;DHT22;3894;49.700;10.770;2023-07-13T08:29:02;23.50;83.90
7704;DHT22;3894;49.700;10.770;2023-07-13T08:31:28;23.30;84.30
7704;DHT22;3894;49.700;10.770;2023-07-13T08:33:54;23.20;83.80
7704;DHT22;3894;49.700;10.770;2023-07-13T08:36:19;23.00;82.70
7704;DHT22;3894;49.700;10.770;2023-07-13T08:38:45;23.00;81.40
7704;DHT22;3894;49.700;10.770;2023-07-13T08:41:13;23.10;81.40
7704;DHT22;3894;49.700;10.770;2023-07-13T08:43:39;23.40;81.30
7704;DHT22;3894;49.700;10.770;2023-07-13T08:46:19;23.40;80.70
7704;DHT22;3894;49.700;10.770;2023-07-13T08:49:02;23.30;80.00
7704;DHT22;3894;49.700;10.770;2023-07-13T08:51:33;23.20;80.90
7704;DHT22;3894;49.700;10.770;2023-07-13T08:54:03;23.40;81.70
7704;DHT22;3894;49.700;10.770;2023-07-13T08:56:31;23.70;81.50
7704;DHT22;3894;49.700;10.770;2023-07-13T08:59:00;23.70;80.40
7704;DHT22;3894;49.700;10.770;2023-07-13T09:04:25;24.00;77.50
7704;DHT22;3894;49.700;10.770;2023-07-13T09:09:48;23.80;75.20
7704;DHT22;3894;49.700;10.770;2023-07-13T09:12:36;23.90;75.80
7704;DHT22;3894;49.700;10.770;2023-07-13T09:15:35;24.00;74.50
7704;DHT22;3894;49.700;10.770;2023-07-13T09:18:08;23.80;73.40
7704;DHT22;3894;49.700;10.770;2023-07-13T09:20:40;23.80;74.50
7704;DHT22;3894;49.700;10.770;2023-07-13T09:23:13;23.90;74.90
7704;DHT22;3894;49.700;10.770;2023-07-13T09:25:40;24.00;74.40
7704;DHT22;3894;49.700;10.770;2023-07-13T09:33:07;24.00;72.00
7704;DHT22;3894;49.700;10.770;2023-07-13T09:35:35;24.10;72.40
7704;DHT22;3894;49.700;10.770;2023-07-13T09:38:15;24.20;71.50
7704;DHT22;3894;49.700;10.770;2023-07-13T09:43:36;24.30;71.10
7704;DHT22;3894;49.700;10.770;2023-07-13T09:46:01;24.50;71.60
7704;DHT22;3894;49.700;10.770;2023-07-13T09:48:36;24.40;70.50
7704;DHT22;3894;49.700;10.770;2023-07-13T09:51:14;24.50;71.50
7704;DHT22;3894;49.700;10.770;2023-07-13T09:53:44;24.40;71.60
7704;DHT22;3894;49.700;10.770;2023-07-13T09:56:24;24.40;71.20
7704;DHT22;3894;49.700;10.770;2023-07-13T09:58:51;24.30;70.90
7704;DHT22;3894;49.700;10.770;2023-07-13T10:01:35;24.30;71.50
7704;DHT22;3894;49.700;10.770;2023-07-13T10:04:01;24.40;71.80
7704;DHT22;3894;49.700;10.770;2023-07-13T10:06:27;24.30;71.50
7704;DHT22;3894;49.700;10.770;2023-07-13T10:08:56;24.20;72.20
7704;DHT22;3894;49.700;10.770;2023-07-13T10:11:26;24.20;71.70
7704;DHT22;3894;49.700;10.770;2023-07-13T10:13:54;23.90;72.00
7704;DHT22;3894;49.700;10.770;2023-07-13T10:16:22;23.80;72.30
7704;DHT22;3894;49.700;10.770;2023-07-13T10:18:59;24.00;72.30
7704;DHT22;3894;49.700;10.770;2023-07-13T10:21:55;23.90;72.70
7704;DHT22;3894;49.700;10.770;2023-07-13T10:24:24;24.30;73.00
7704;DHT22;3894;49.700;10.770;2023-07-13T10:27:05;24.60;72.50
7704;DHT22;3894;49.700;10.770;2023-07-13T10:29:39;24.90;71.70
7704;DHT22;3894;49.700;10.770;2023-07-13T10:32:11;25.10;70.30
7704;DHT22;3894;49.700;10.770;2023-07-13T10:34:37;25.20;70.60
7704;DHT22;3894;49.700;10.770;2023-07-13T10:37:05;24.80;70.60
7704;DHT22;3894;49.700;10.770;2023-07-13T10:39:33;24.40;71.40
7704;DHT22;3894;49.700;10.770;2023-07-13T10:42:03;24.20;72.30
7704;DHT22;3894;49.700;10.770;2023-07-13T10:44:32;24.50;71.20
7704;DHT22;3894;49.700;10.770;2023-07-13T10:47:11;24.90;71.30
7704;DHT22;3894;49.700;10.770;2023-07-13T10:49:39;25.50;70.40
7704;DHT22;3894;49.700;10.770;2023-07-13T10:52:20;25.20;69.60
7704;DHT22;3894;49.700;10.770;2023-07-13T10:54:51;25.10;69.90
7704;DHT22;3894;49.700;10.770;2023-07-13T10:57:21;25.30;70.40
7704;DHT22;3894;49.700;10.770;2023-07-13T10:59:49;25.20;70.00
7704;DHT22;3894;49.700;10.770;2023-07-13T11:02:35;25.40;70.60
7704;DHT22;3894;49.700;10.770;2023-07-13T11:05:20;25.90;70.10
7704;DHT22;3894;49.700;10.770;2023-07-13T11:08:34;25.80;68.30
7704;DHT22;3894;49.700;10.770;2023-07-13T11:11:03;25.10;69.40
7704;DHT22;3894;49.700;10.770;2023-07-13T11:13:37;24.80;70.00
7704;DHT22;3894;49.700;10.770;2023-07-13T11:21:34;25.60;69.60
7704;DHT22;3894;49.700;10.770;2023-07-13T11:24:17;25.20;69.90
7704;DHT22;3894;49.700;10.770;2023-07-13T11:31:49;24.40;71.90
7704;DHT22;3894;49.700;10.770;2023-07-13T11:34:21;24.50;71.40
7704;DHT22;3894;49.700;10.770;2023-07-13T11:36:49;24.40;71.30
7704;DHT22;3894;49.700;10.770;2023-07-13T11:39:34;24.40;71.30
7704;DHT22;3894;49.700;10.770;2023-07-13T11:42:07;24.50;71.20
7704;DHT22;3894;49.700;10.770;2023-07-13T11:44:34;24.60;71.50
7704;DHT22;3894;49.700;10.770;2023-07-13T11:47:08;24.40;71.20
7704;DHT22;3894;49.700;10.770;2023-07-13T11:49:47;24.50;72.00
7704;DHT22;3894;49.700;10.770;2023-07-13T11:52:17;24.60;71.90
7704;DHT22;3894;49.700;10.770;2023-07-13T11:54:57;24.90;72.30
7704;DHT22;3894;49.700;10.770;2023-07-13T11:57:38;24.80;71.40
7704;DHT22;3894;49.700;10.770;2023-07-13T12:00:13;24.80;72.00
7704;DHT22;3894;49.700;10.770;2023-07-13T12:02:46;24.80;71.70
7704;DHT22;3894;49.700;10.770;2023-07-13T12:05:14;25.00;72.00
7704;DHT22;3894;49.700;10.770;2023-07-13T12:07:40;25.00;71.30
7704;DHT22;3894;49.700;10.770;2023-07-13T12:12:40;24.80;71.50
7704;DHT22;3894;49.700;10.770;2023-07-13T12:15:11;25.10;71.30
7704;DHT22;3894;49.700;10.770;2023-07-13T12:17:37;25.40;71.10
7704;DHT22;3894;49.700;10.770;2023-07-13T12:20:19;25.80;70.80
7704;DHT22;3894;49.700;10.770;2023-07-13T12:22:47;25.90;70.70
7704;DHT22;3894;49.700;10.770;2023-07-13T12:25:14;25.80;70.80
7704;DHT22;3894;49.700;10.770;2023-07-13T12:27:40;25.40;71.10
7704;DHT22;3894;49.700;10.770;2023-07-13T12:30:30;25.20;71.20
7704;DHT22;3894;49.700;10.770;2023-07-13T12:33:07;24.90;71.80
7704;DHT22;3894;49.700;10.770;2023-07-13T12:35:47;24.90;71.90
7704;DHT22;3894;49.700;10.770;2023-07-13T12:38:14;24.80;72.10
7704;DHT22;3894;49.700;10.770;2023-07-13T12:40:41;24.80;72.30
7704;DHT22;3894;49.700;10.770;2023-07-13T12:43:14;24.70;72.10
7704;DHT22;3894;49.700;10.770;2023-07-13T12:45:55;24.60;72.50
7704;DHT22;3894;49.700;10.770;2023-07-13T12:48:21;24.60;72.30
7704;DHT22;3894;49.700;10.770;2023-07-13T12:50:48;24.60;71.00
7704;DHT22;3894;49.700;10.770;2023-07-13T12:53:20;24.70;72.10
7704;DHT22;3894;49.700;10.770;2023-07-13T12:55:50;24.70;70.90
7704;DHT22;3894;49.700;10.770;2023-07-13T12:58:36;24.60;71.00
7704;DHT22;3894;49.700;10.770;2023-07-13T13:01:03;24.70;71.40
7704;DHT22;3894;49.700;10.770;2023-07-13T13:03:35;24.60;70.80
7704;DHT22;3894;49.700;10.770;2023-07-13T13:06:23;24.70;71.30
7704;DHT22;3894;49.700;10.770;2023-07-13T13:08:51;24.90;70.90
7704;DHT22;3894;49.700;10.770;2023-07-13T13:11:18;24.80;71.50
7704;DHT22;3894;49.700;10.770;2023-07-13T13:13:45;24.70;71.30
7704;DHT22;3894;49.700;10.770;2023-07-13T13:19:25;24.80;71.00
7704;DHT22;3894;49.700;10.770;2023-07-13T13:21:53;24.80;71.20
7704;DHT22;3894;49.700;10.770;2023-07-13T13:24:22;24.90;70.70
7704;DHT22;3894;49.700;10.770;2023-07-13T13:26:50;25.00;71.00
7704;DHT22;3894;49.700;10.770;2023-07-13T13:29:21;25.10;71.20
7704;DHT22;3894;49.700;10.770;2023-07-13T13:31:49;25.30;71.40
7704;DHT22;3894;49.700;10.770;2023-07-13T13:34:17;25.80;71.30
7704;DHT22;3894;49.700;10.770;2023-07-13T13:36:43;25.90;69.80
7704;DHT22;3894;49.700;10.770;2023-07-13T13:39:48;25.30;70.10
7704;DHT22;3894;49.700;10.770;2023-07-13T13:42:15;25.00;70.40
7704;DHT22;3894;49.700;10.770;2023-07-13T13:44:41;24.90;70.40
7704;DHT22;3894;49.700;10.770;2023-07-13T13:47:31;25.10;70.10
7704;DHT22;3894;49.700;10.770;2023-07-13T13:49:58;25.40;69.30
7704;DHT22;3894;49.700;10.770;2023-07-13T13:52:24;25.60;68.50
7704;DHT22;3894;49.700;10.770;2023-07-13T13:54:50;25.70;68.00
7704;DHT22;3894;49.700;10.770;2023-07-13T13:57:22;25.50;68.60
7704;DHT22;3894;49.700;10.770;2023-07-13T13:59:48;25.20;69.40
7704;DHT22;3894;49.700;10.770;2023-07-13T14:02:26;25.10;69.20
7704;DHT22;3894;49.700;10.770;2023-07-13T14:04:58;25.00;69.20
7704;DHT22;3894;49.700;10.770;2023-07-13T14:07:25;25.30;69.00
7704;DHT22;3894;49.700;10.770;2023-07-13T14:09:53;25.70;68.80
7704;DHT22;3894;49.700;10.770;2023-07-13T14:12:19;25.90;67.80
7704;DHT22;3894;49.700;10.770;2023-07-13T14:14:45;25.60;68.40
7704;DHT22;3894;49.700;10.770;2023-07-13T14:17:25;25.50;68.70
7704;DHT22;3894;49.700;10.770;2023-07-13T14:19:52;25.80;68.80
7704;DHT22;3894;49.700;10.770;2023-07-13T14:22:25;25.90;68.00
7704;DHT22;3894;49.700;10.770;2023-07-13T14:24:54;26.00;68.50
7704;DHT22;3894;49.700;10.770;2023-07-13T14:27:21;26.00;68.50
7704;DHT22;3894;49.700;10.770;2023-07-13T14:29:46;26.10;67.60
7704;DHT22;3894;49.700;10.770;2023-07-13T14:32:13;25.80;68.30
7704;DHT22;3894;49.700;10.770;2023-07-13T14:34:39;25.80;68.40
7704;DHT22;3894;49.700;10.770;2023-07-13T14:37:05;25.80;68.50
7704;DHT22;3894;49.700;10.770;2023-07-13T14:39:31;26.00;69.60
7704;DHT22;3894;49.700;10.770;2023-07-13T14:41:57;26.20;68.60
7704;DHT22;3894;49.700;10.770;2023-07-13T14:44:28;26.00;67.80
7704;DHT22;3894;49.700;10.770;2023-07-13T14:46:54;26.00;68.10
7704;DHT22;3894;49.700;10.770;2023-07-13T14:49:32;26.10;68.30
7704;DHT22;3894;49.700;10.770;2023-07-13T14:52:01;26.30;68.00
7704;DHT22;3894;49.700;10.770;2023-07-13T14:54:28;26.00;67.30
7704;DHT22;3894;49.700;10.770;2023-07-13T14:56:53;25.90;68.20
7704;DHT22;3894;49.700;10.770;2023-07-13T14:59:19;25.90;69.00
7704;DHT22;3894;49.700;10.770;2023-07-13T15:01:46;26.00;68.40
7704;DHT22;3894;49.700;10.770;2023-07-13T15:04:12;26.00;68.50
7704;DHT22;3894;49.700;10.770;2023-07-13T15:06:59;26.20;67.90
7704;DHT22;3894;49.700;10.770;2023-07-13T15:09:25;25.90;67.90
7704;DHT22;3894;49.700;10.770;2023-07-13T15:11:55;25.90;68.40
7704;DHT22;3894;49.700;10.770;2023-07-13T15:14:21;25.90;68.70
7704;DHT22;3894;49.700;10.770;2023-07-13T15:16:49;25.90;68.20
7704;DHT22;3894;49.700;10.770;2023-07-13T15:19:16;25.80;68.70
7704;DHT22;3894;49.700;10.770;2023-07-13T15:21:43;25.80;68.00
7704;DHT22;3894;49.700;10.770;2023-07-13T15:24:10;25.70;68.40
7704;DHT22;3894;49.700;10.770;2023-07-13T15:26:36;25.70;68.10
7704;DHT22;3894;49.700;10.770;2023-07-13T15:29:02;25.80;68.20
7704;DHT22;3894;49.700;10.770;2023-07-13T15:31:28;25.60;68.80
7704;DHT22;3894;49.700;10.770;2023-07-13T15:33:57;25.60;69.50
7704;DHT22;3894;49.700;10.770;2023-07-13T15:36:23;25.60;69.40
7704;DHT22;3894;49.700;10.770;2023-07-13T15:38:53;25.80;69.80
7704;DHT22;3894;49.700;10.770;2023-07-13T15:41:24;25.90;68.90
7704;DHT22;3894;49.700;10.770;2023-07-13T15:43:52;25.50;69.30
7704;DHT22;3894;49.700;10.770;2023-07-13T15:46:19;25.40;70.20
7704;DHT22;3894;49.700;10.770;2023-07-13T15:48:46;25.40;70.10
7704;DHT22;3894;49.700;10.770;2023-07-13T15:51:22;25.30;69.90
7704;DHT22;3894;49.700;10.770;2023-07-13T15:53:48;25.30;70.10
7704;DHT22;3894;49.700;10.770;2023-07-13T15:56:20;25.50;70.40
7704;DHT22;3894;49.700;10.770;2023-07-13T15:58:48;25.90;69.70
7704;DHT22;3894;49.700;10.770;2023-07-13T16:01:13;26.10;69.10
7704;DHT22;3894;49.700;10.770;2023-07-13T16:03:39;26.00;68.70
7704;DHT22;3894;49.700;10.770;2023-07-13T16:06:25;26.10;68.50
7704;DHT22;3894;49.700;10.770;2023-07-13T16:08:53;26.00;68.80
7704;DHT22;3894;49.700;10.770;2023-07-13T16:11:32;25.90;69.20
7704;DHT22;3894;49.700;10.770;2023-07-13T16:13:58;26.00;68.40
7704;DHT22;3894;49.700;10.770;2023-07-13T16:16:29;25.90;67.70
7704;DHT22;3894;49.700;10.770;2023-07-13T16:18:57;25.70;68.30
7704;DHT22;3894;49.700;10.770;2023-07-13T16:21:25;25.90;68.50
7704;DHT22;3894;49.700;10.770;2023-07-13T16:23:52;25.90;67.70
7704;DHT22;3894;49.700;10.770;2023-07-13T16:26:32;25.80;67.80